sensor_id;sensor_type;location;lat;lon;timestamp;temperature;humidity
19734;DHT22;10018;51.230;7.860;2024-02-26T00:01:27;3.30;99.90
19734;DHT22;10018;51.230;7.860;2024-02-26T00:03:53;3.30;99.90
19734;DHT22;10018;51.230;7.860;2024-02-26T00:06:20;3.30;99.90
19734;DHT22;10018;51.230;7.860;2024-02-26T00:08:46;3.30;99.90
19734;DHT22;10018;51.230;7.860;2024-02-26T00:11:14;3.30;99.90
19734;DHT22;10018;51.230;7.860;2024-02-26T00:13:39;3.20;99.90
19734;DHT22;10018;51.230;7.860;2024-02-26T00:16:05;3.30;99.90
19734;DHT22;10018;51.230;7.860;2024-02-26T00:18:31;3.30;99.90
19734;DHT22;10018;51.230;7.860;2024-02-26T00:20:57;3.30;99.90
19734;DHT22;10018;51.230;7.860;2024-02-26T00:23:23;3.30;99.90
19734;DHT22;10018;51.230;7.860;2024-02-26T00:25:49;3.30;99.90
19734;DHT22;10018;51.230;7.860;2024-02-26T00:28:14;3.30;99.90
19734;DHT22;10018;51.230;7.860;2024-02-26T00:30:43;3.40;99.90
19734;DHT22;10018;51.230;7.860;2024-02-26T00:33:08;3.40;99.90
19734;DHT22;10018;51.230;7.860;2024-02-26T00:35:34;3.30;99.90
19734;DHT22;10018;51.230;7.860;2024-02-26T00:37:59;3.40;99.90
19734;DHT22;10018;51.230;7.860;2024-02-26T00:40:26;3.30;99.90
19734;DHT22;10018;51.230;7.860;2024-02-26T00:42:52;3.40;99.90
19734;DHT22;10018;51.230;7.860;2024-02-26T00:45:18;3.40;99.90
19734;DHT22;10018;51.230;7.860;2024-02-26T00:47:44;3.40;99.90
19734;DHT22;10018;51.230;7.860;2024-02-26T00:50:12;3.40;99.90
19734;DHT22;10018;51.230;7.860;2024-02-26T00:52:38;3.40;99.90
19734;DHT22;10018;51.230;7.860;2024-02-26T00:55:04;3.40;99.90
19734;DHT22;10018;51.230;7.860;2024-02-26T00:57:30;3.50;99.90
19734;DHT22;10018;51.230;7.860;2024-02-26T00:59:55;3.50;99.90
19734;DHT22;10018;51.230;7.860;2024-02-26T01:02:22;3.40;99.90
19734;DHT22;10018;51.230;7.860;2024-02-26T01:04:48;3.40;99.90
19734;DHT22;10018;51.230;7.860;2024-02-26T01:07:14;3.50;99.90
19734;DHT22;10018;51.230;7.860;2024-02-26T01:09:39;3.50;99.90
19734;DHT22;10018;51.230;7.860;2024-02-26T01:12:05;3.50;99.90
19734;DHT22;10018;51.230;7.860;2024-02-26T01:14:31;3.40;99.90
19734;DHT22;10018;51.230;7.860;2024-02-26T01:16:56;3.40;99.90
19734;DHT22;10018;51.230;7.860;2024-02-26T01:19:22;3.40;99.90
19734;DHT22;10018;51.230;7.860;2024-02-26T01:21:48;3.40;99.90
19734;DHT22;10018;51.230;7.860;2024-02-26T01:24:13;3.40;99.90
19734;DHT22;10018;51.230;7.860;2024-02-26T01:26:39;3.40;99.90
19734;DHT22;10018;51.230;7.860;2024-02-26T01:29:04;3.40;99.90
19734;DHT22;10018;51.230;7.860;2024-02-26T01:31:30;3.40;99.90
19734;DHT22;10018;51.230;7.860;2024-02-26T01:33:56;3.40;99.90
19734;DHT22;10018;51.230;7.860;2024-02-26T01:36:21;3.40;99.90
19734;DHT22;10018;51.230;7.860;2024-02-26T01:38:47;3.40;99.90
19734;DHT22;10018;51.230;7.860;2024-02-26T01:41:14;3.40;99.90
19734;DHT22;10018;51.230;7.860;2024-02-26T01:43:40;3.40;99.90
19734;DHT22;10018;51.230;7.860;2024-02-26T01:46:06;3.40;99.90
19734;DHT22;10018;51.230;7.860;2024-02-26T01:48:36;3.40;99.90
19734;DHT22;10018;51.230;7.860;2024-02-26T01:51:02;3.50;99.90
19734;DHT22;10018;51.230;7.860;2024-02-26T01:53:27;3.50;99.90
19734;DHT22;10018;51.230;7.860;2024-02-26T01:55:53;3.50;99.90
19734;DHT22;10018;51.230;7.860;2024-02-26T01:58:18;3.50;99.90
19734;DHT22;10018;51.230;7.860;2024-02-26T02:00:47;3.50;99.90
19734;DHT22;10018;51.230;7.860;2024-02-26T02:03:12;3.50;99.90
19734;DHT22;10018;51.230;7.860;2024-02-26T02:05:38;3.50;99.90
19734;DHT22;10018;51.230;7.860;2024-02-26T02:08:08;3.50;99.90
19734;DHT22;10018;51.230;7.860;2024-02-26T02:10:34;3.50;99.90
19734;DHT22;10018;51.230;7.860;2024-02-26T02:13:02;3.50;99.90
19734;DHT22;10018;51.230;7.860;2024-02-26T02:15:28;3.50;99.90
19734;DHT22;10018;51.230;7.860;2024-02-26T02:17:54;3.50;99.90
19734;DHT22;10018;51.230;7.860;2024-02-26T02:20:23;3.50;99.90
19734;DHT22;10018;51.230;7.860;2024-02-26T02:22:49;3.60;99.90
19734;DHT22;10018;51.230;7.860;2024-02-26T02:25:15;3.60;99.90
19734;DHT22;10018;51.230;7.860;2024-02-26T02:27:41;3.60;99.90
19734;DHT22;10018;51.230;7.860;2024-02-26T02:30:08;3.60;99.90
19734;DHT22;10018;51.230;7.860;2024-02-26T02:32:36;3.70;99.90
19734;DHT22;10018;51.230;7.860;2024-02-26T02:35:05;3.70;99.90
19734;DHT22;10018;51.230;7.860;2024-02-26T02:37:31;3.60;99.90
19734;DHT22;10018;51.230;7.860;2024-02-26T02:39:56;3.60;99.90
19734;DHT22;10018;51.230;7.860;2024-02-26T02:42:23;3.70;99.90
19734;DHT22;10018;51.230;7.860;2024-02-26T02:44:49;3.70;99.90
19734;DHT22;10018;51.230;7.860;2024-02-26T02:47:14;3.70;99.90
19734;DHT22;10018;51.230;7.860;2024-02-26T02:49:40;3.70;99.90
19734;DHT22;10018;51.230;7.860;2024-02-26T02:52:05;3.70;99.90
19734;DHT22;10018;51.230;7.860;2024-02-26T02:54:31;3.70;99.90
19734;DHT22;10018;51.230;7.860;2024-02-26T02:56:57;3.70;99.90
19734;DHT22;10018;51.230;7.860;2024-02-26T02:59:22;3.70;99.90
19734;DHT22;10018;51.230;7.860;2024-02-26T03:01:48;3.80;99.90
19734;DHT22;10018;51.230;7.860;2024-02-26T03:04:16;3.80;99.90
19734;DHT22;10018;51.230;7.860;2024-02-26T03:06:41;3.80;99.90
19734;DHT22;10018;51.230;7.860;2024-02-26T03:09:07;3.80;99.90
19734;DHT22;10018;51.230;7.860;2024-02-26T03:11:32;3.90;99.90
19734;DHT22;10018;51.230;7.860;2024-02-26T03:14:00;3.90;99.90
19734;DHT22;10018;51.230;7.860;2024-02-26T03:16:26;3.90;99.90
19734;DHT22;10018;51.230;7.860;2024-02-26T03:18:51;3.90;99.90
19734;DHT22;10018;51.230;7.860;2024-02-26T03:21:18;3.90;99.90
19734;DHT22;10018;51.230;7.860;2024-02-26T03:23:43;3.90;99.90
19734;DHT22;10018;51.230;7.860;2024-02-26T03:26:09;4.00;99.90
19734;DHT22;10018;51.230;7.860;2024-02-26T03:28:39;4.00;99.90
19734;DHT22;10018;51.230;7.860;2024-02-26T03:31:04;3.90;99.90
19734;DHT22;10018;51.230;7.860;2024-02-26T03:33:30;3.90;99.90
19734;DHT22;10018;51.230;7.860;2024-02-26T03:35:55;3.90;99.90
19734;DHT22;10018;51.230;7.860;2024-02-26T03:38:21;3.90;99.90
19734;DHT22;10018;51.230;7.860;2024-02-26T03:40:49;3.90;99.90
19734;DHT22;10018;51.230;7.860;2024-02-26T03:43:14;3.90;99.90
19734;DHT22;10018;51.230;7.860;2024-02-26T03:45:42;3.80;99.90
19734;DHT22;10018;51.230;7.860;2024-02-26T03:48:08;3.80;99.90
19734;DHT22;10018;51.230;7.860;2024-02-26T03:50:34;3.80;99.90
19734;DHT22;10018;51.230;7.860;2024-02-26T03:53:00;3.70;99.90
19734;DHT22;10018;51.230;7.860;2024-02-26T03:55:25;3.80;99.90
19734;DHT22;10018;51.230;7.860;2024-02-26T03:57:52;3.80;99.90
19734;DHT22;10018;51.230;7.860;2024-02-26T04:00:18;3.80;99.90
19734;DHT22;10018;51.230;7.860;2024-02-26T04:02:43;3.80;99.90
19734;DHT22;10018;51.230;7.860;2024-02-26T04:05:10;3.90;99.90
19734;DHT22;10018;51.230;7.860;2024-02-26T04:07:36;3.90;99.90
19734;DHT22;10018;51.230;7.860;2024-02-26T04:10:02;3.90;99.90
19734;DHT22;10018;51.230;7.860;2024-02-26T04:12:30;3.90;99.90
19734;DHT22;10018;51.230;7.860;2024-02-26T04:14:56;3.90;99.90
19734;DHT22;10018;51.230;7.860;2024-02-26T04:17:24;3.90;99.90
19734;DHT22;10018;51.230;7.860;2024-02-26T04:19:49;3.90;99.90
19734;DHT22;10018;51.230;7.860;2024-02-26T04:22:15;3.90;99.90
19734;DHT22;10018;51.230;7.860;2024-02-26T04:24:40;3.90;99.90
19734;DHT22;10018;51.230;7.860;2024-02-26T04:27:06;4.00;99.90
19734;DHT22;10018;51.230;7.860;2024-02-26T04:29:34;4.00;99.90
19734;DHT22;10018;51.230;7.860;2024-02-26T04:32:02;3.90;99.90
19734;DHT22;10018;51.230;7.860;2024-02-26T04:34:28;4.00;99.90
19734;DHT22;10018;51.230;7.860;2024-02-26T04:36:53;4.10;99.90
19734;DHT22;10018;51.230;7.860;2024-02-26T04:39:19;4.10;99.90
19734;DHT22;10018;51.230;7.860;2024-02-26T04:41:44;4.10;99.90
19734;DHT22;10018;51.230;7.860;2024-02-26T04:44:10;4.10;99.90
19734;DHT22;10018;51.230;7.860;2024-02-26T04:46:35;4.00;99.90
19734;DHT22;10018;51.230;7.860;2024-02-26T04:49:01;4.00;99.90
19734;DHT22;10018;51.230;7.860;2024-02-26T04:51:26;4.00;99.90
19734;DHT22;10018;51.230;7.860;2024-02-26T04:53:52;4.00;99.90
19734;DHT22;10018;51.230;7.860;2024-02-26T04:56:20;4.00;99.90
19734;DHT22;10018;51.230;7.860;2024-02-26T04:58:46;4.00;99.90
19734;DHT22;10018;51.230;7.860;2024-02-26T05:01:15;4.00;99.90
19734;DHT22;10018;51.230;7.860;2024-02-26T05:03:42;4.00;99.90
19734;DHT22;10018;51.230;7.860;2024-02-26T05:06:08;4.00;99.90
19734;DHT22;10018;51.230;7.860;2024-02-26T05:08:34;4.00;99.90
19734;DHT22;10018;51.230;7.860;2024-02-26T05:11:02;4.10;99.90
19734;DHT22;10018;51.230;7.860;2024-02-26T05:13:28;4.10;99.90
19734;DHT22;10018;51.230;7.860;2024-02-26T05:15:54;4.10;99.90
19734;DHT22;10018;51.230;7.860;2024-02-26T05:18:19;4.10;99.90
19734;DHT22;10018;51.230;7.860;2024-02-26T05:20:45;4.10;99.90
19734;DHT22;10018;51.230;7.860;2024-02-26T05:23:11;4.10;99.90
19734;DHT22;10018;51.230;7.860;2024-02-26T05:25:36;4.10;99.90
19734;DHT22;10018;51.230;7.860;2024-02-26T05:28:02;4.10;99.90
19734;DHT22;10018;51.230;7.860;2024-02-26T05:30:28;4.10;99.90
19734;DHT22;10018;51.230;7.860;2024-02-26T05:32:54;4.10;99.90
19734;DHT22;10018;51.230;7.860;2024-02-26T05:35:20;4.20;99.90
19734;DHT22;10018;51.230;7.860;2024-02-26T05:37:45;4.10;99.90
19734;DHT22;10018;51.230;7.860;2024-02-26T05:40:11;4.10;99.90
19734;DHT22;10018;51.230;7.860;2024-02-26T05:42:37;4.20;99.90
19734;DHT22;10018;51.230;7.860;2024-02-26T05:45:03;4.20;99.90
19734;DHT22;10018;51.230;7.860;2024-02-26T05:47:35;4.20;99.90
19734;DHT22;10018;51.230;7.860;2024-02-26T05:50:01;4.20;99.90
19734;DHT22;10018;51.230;7.860;2024-02-26T05:52:27;4.20;99.90
19734;DHT22;10018;51.230;7.860;2024-02-26T05:54:54;4.20;99.90
19734;DHT22;10018;51.230;7.860;2024-02-26T05:57:20;4.20;99.90
19734;DHT22;10018;51.230;7.860;2024-02-26T05:59:45;4.20;99.90
19734;DHT22;10018;51.230;7.860;2024-02-26T06:02:13;4.20;99.90
19734;DHT22;10018;51.230;7.860;2024-02-26T06:04:39;4.20;99.90
19734;DHT22;10018;51.230;7.860;2024-02-26T06:07:07;4.20;99.90
19734;DHT22;10018;51.230;7.860;2024-02-26T06:09:32;4.20;99.90
19734;DHT22;10018;51.230;7.860;2024-02-26T06:11:58;4.20;99.90
19734;DHT22;10018;51.230;7.860;2024-02-26T06:14:26;4.20;99.90
19734;DHT22;10018;51.230;7.860;2024-02-26T06:16:51;4.20;99.90
19734;DHT22;10018;51.230;7.860;2024-02-26T06:19:19;4.20;99.90
19734;DHT22;10018;51.230;7.860;2024-02-26T06:21:45;4.20;99.90
19734;DHT22;10018;51.230;7.860;2024-02-26T06:24:10;4.20;99.90
19734;DHT22;10018;51.230;7.860;2024-02-26T06:26:36;4.30;99.90
19734;DHT22;10018;51.230;7.860;2024-02-26T06:29:01;4.30;99.90
19734;DHT22;10018;51.230;7.860;2024-02-26T06:31:27;4.40;99.90
19734;DHT22;10018;51.230;7.860;2024-02-26T06:33:53;4.40;99.90
19734;DHT22;10018;51.230;7.860;2024-02-26T06:36:19;4.40;99.90
19734;DHT22;10018;51.230;7.860;2024-02-26T06:38:45;4.40;99.90
19734;DHT22;10018;51.230;7.860;2024-02-26T06:41:10;4.40;99.90
19734;DHT22;10018;51.230;7.860;2024-02-26T06:43:36;4.30;99.90
19734;DHT22;10018;51.230;7.860;2024-02-26T06:46:02;4.40;99.90
19734;DHT22;10018;51.230;7.860;2024-02-26T06:48:28;4.40;99.90
19734;DHT22;10018;51.230;7.860;2024-02-26T06:50:53;4.40;99.90
19734;DHT22;10018;51.230;7.860;2024-02-26T06:53:19;4.40;99.90
19734;DHT22;10018;51.230;7.860;2024-02-26T06:55:45;4.40;99.90
19734;DHT22;10018;51.230;7.860;2024-02-26T06:58:10;4.50;99.90
19734;DHT22;10018;51.230;7.860;2024-02-26T07:00:36;4.50;99.90
19734;DHT22;10018;51.230;7.860;2024-02-26T07:03:02;4.50;99.90
19734;DHT22;10018;51.230;7.860;2024-02-26T07:05:28;4.50;99.90
19734;DHT22;10018;51.230;7.860;2024-02-26T07:07:53;4.50;99.90
19734;DHT22;10018;51.230;7.860;2024-02-26T07:10:21;4.60;99.90
19734;DHT22;10018;51.230;7.860;2024-02-26T07:12:47;4.60;99.90
19734;DHT22;10018;51.230;7.860;2024-02-26T07:15:12;4.70;99.90
19734;DHT22;10018;51.230;7.860;2024-02-26T07:17:38;4.70;99.90
19734;DHT22;10018;51.230;7.860;2024-02-26T07:20:09;4.60;99.90
19734;DHT22;10018;51.230;7.860;2024-02-26T07:22:35;4.60;99.90
19734;DHT22;10018;51.230;7.860;2024-02-26T07:25:01;4.70;99.90
19734;DHT22;10018;51.230;7.860;2024-02-26T07:27:26;4.70;99.90
19734;DHT22;10018;51.230;7.860;2024-02-26T07:29:52;4.70;99.90
19734;DHT22;10018;51.230;7.860;2024-02-26T07:32:17;4.80;99.90
19734;DHT22;10018;51.230;7.860;2024-02-26T07:34:43;4.80;99.90
19734;DHT22;10018;51.230;7.860;2024-02-26T07:37:10;4.80;99.90
19734;DHT22;10018;51.230;7.860;2024-02-26T07:39:36;4.80;99.90
19734;DHT22;10018;51.230;7.860;2024-02-26T07:42:02;4.90;99.90
19734;DHT22;10018;51.230;7.860;2024-02-26T07:44:28;5.00;99.90
19734;DHT22;10018;51.230;7.860;2024-02-26T07:46:54;5.00;99.90
19734;DHT22;10018;51.230;7.860;2024-02-26T07:49:19;5.00;99.90
19734;DHT22;10018;51.230;7.860;2024-02-26T07:51:45;5.10;99.90
19734;DHT22;10018;51.230;7.860;2024-02-26T07:54:10;5.10;99.90
19734;DHT22;10018;51.230;7.860;2024-02-26T07:56:36;5.10;99.90
19734;DHT22;10018;51.230;7.860;2024-02-26T07:59:02;5.10;99.90
19734;DHT22;10018;51.230;7.860;2024-02-26T08:01:27;5.20;99.90
19734;DHT22;10018;51.230;7.860;2024-02-26T08:03:53;5.20;99.90
19734;DHT22;10018;51.230;7.860;2024-02-26T08:06:19;5.20;99.90
19734;DHT22;10018;51.230;7.860;2024-02-26T08:08:45;5.30;99.90
19734;DHT22;10018;51.230;7.860;2024-02-26T08:11:14;5.30;99.90
19734;DHT22;10018;51.230;7.860;2024-02-26T08:13:42;5.30;99.90
19734;DHT22;10018;51.230;7.860;2024-02-26T08:16:08;5.30;99.90
19734;DHT22;10018;51.230;7.860;2024-02-26T08:18:33;5.40;99.90
19734;DHT22;10018;51.230;7.860;2024-02-26T08:20:59;5.30;99.90
19734;DHT22;10018;51.230;7.860;2024-02-26T08:23:25;5.40;99.90
19734;DHT22;10018;51.230;7.860;2024-02-26T08:25:51;5.40;99.90
19734;DHT22;10018;51.230;7.860;2024-02-26T08:28:17;5.40;99.90
19734;DHT22;10018;51.230;7.860;2024-02-26T08:30:43;5.50;99.90
19734;DHT22;10018;51.230;7.860;2024-02-26T08:33:09;5.50;99.90
19734;DHT22;10018;51.230;7.860;2024-02-26T08:35:35;5.60;99.90
19734;DHT22;10018;51.230;7.860;2024-02-26T08:38:01;5.60;99.90
19734;DHT22;10018;51.230;7.860;2024-02-26T08:40:26;5.60;99.90
19734;DHT22;10018;51.230;7.860;2024-02-26T08:42:52;5.70;99.90
19734;DHT22;10018;51.230;7.860;2024-02-26T08:45:18;5.70;99.90
19734;DHT22;10018;51.230;7.860;2024-02-26T08:47:45;5.70;99.90
19734;DHT22;10018;51.230;7.860;2024-02-26T08:50:14;5.80;99.90
19734;DHT22;10018;51.230;7.860;2024-02-26T08:52:40;5.80;99.90
19734;DHT22;10018;51.230;7.860;2024-02-26T08:55:06;5.80;99.90
19734;DHT22;10018;51.230;7.860;2024-02-26T08:57:34;5.90;99.90
19734;DHT22;10018;51.230;7.860;2024-02-26T09:00:00;5.90;99.90
19734;DHT22;10018;51.230;7.860;2024-02-26T09:02:26;6.00;99.90
19734;DHT22;10018;51.230;7.860;2024-02-26T09:04:54;6.10;99.90
19734;DHT22;10018;51.230;7.860;2024-02-26T09:07:21;6.00;99.90
19734;DHT22;10018;51.230;7.860;2024-02-26T09:09:46;6.00;99.90
19734;DHT22;10018;51.230;7.860;2024-02-26T09:12:12;6.10;99.90
19734;DHT22;10018;51.230;7.860;2024-02-26T09:14:40;6.10;99.90
19734;DHT22;10018;51.230;7.860;2024-02-26T09:17:05;6.20;99.90
19734;DHT22;10018;51.230;7.860;2024-02-26T09:19:32;6.30;99.90
19734;DHT22;10018;51.230;7.860;2024-02-26T09:21:58;6.20;99.90
19734;DHT22;10018;51.230;7.860;2024-02-26T09:24:24;6.20;99.90
19734;DHT22;10018;51.230;7.860;2024-02-26T09:26:50;6.20;99.90
19734;DHT22;10018;51.230;7.860;2024-02-26T09:29:16;6.20;99.90
19734;DHT22;10018;51.230;7.860;2024-02-26T09:31:42;6.20;99.90
19734;DHT22;10018;51.230;7.860;2024-02-26T09:34:08;6.30;99.90
19734;DHT22;10018;51.230;7.860;2024-02-26T09:36:34;6.20;99.90
19734;DHT22;10018;51.230;7.860;2024-02-26T09:38:59;6.20;99.90
19734;DHT22;10018;51.230;7.860;2024-02-26T09:41:28;6.20;99.90
19734;DHT22;10018;51.230;7.860;2024-02-26T09:43:56;6.20;99.90
19734;DHT22;10018;51.230;7.860;2024-02-26T09:46:25;6.30;99.90
19734;DHT22;10018;51.230;7.860;2024-02-26T09:48:51;6.30;99.90
19734;DHT22;10018;51.230;7.860;2024-02-26T09:51:17;6.30;99.90
19734;DHT22;10018;51.230;7.860;2024-02-26T09:53:44;6.40;99.90
19734;DHT22;10018;51.230;7.860;2024-02-26T09:56:11;6.40;99.90
19734;DHT22;10018;51.230;7.860;2024-02-26T09:58:39;6.40;99.90
19734;DHT22;10018;51.230;7.860;2024-02-26T10:01:10;6.50;99.90
19734;DHT22;10018;51.230;7.860;2024-02-26T10:03:39;6.60;99.90
19734;DHT22;10018;51.230;7.860;2024-02-26T10:06:07;6.50;99.90
19734;DHT22;10018;51.230;7.860;2024-02-26T10:08:34;6.50;99.90
19734;DHT22;10018;51.230;7.860;2024-02-26T10:11:00;6.60;99.90
19734;DHT22;10018;51.230;7.860;2024-02-26T10:13:26;6.60;99.90
19734;DHT22;10018;51.230;7.860;2024-02-26T10:15:52;6.60;99.90
19734;DHT22;10018;51.230;7.860;2024-02-26T10:18:18;6.60;99.90
19734;DHT22;10018;51.230;7.860;2024-02-26T10:21:02;6.70;99.90
19734;DHT22;10018;51.230;7.860;2024-02-26T10:23:27;6.70;99.90
19734;DHT22;10018;51.230;7.860;2024-02-26T10:25:56;6.70;99.90
19734;DHT22;10018;51.230;7.860;2024-02-26T10:28:23;6.70;99.90
19734;DHT22;10018;51.230;7.860;2024-02-26T10:30:49;6.80;99.90
19734;DHT22;10018;51.230;7.860;2024-02-26T10:33:16;6.80;99.90
19734;DHT22;10018;51.230;7.860;2024-02-26T10:35:47;6.90;99.90
19734;DHT22;10018;51.230;7.860;2024-02-26T10:38:15;7.10;99.90
19734;DHT22;10018;51.230;7.860;2024-02-26T10:40:45;7.10;99.90
19734;DHT22;10018;51.230;7.860;2024-02-26T10:43:14;7.10;99.90
19734;DHT22;10018;51.230;7.860;2024-02-26T10:45:42;7.10;99.90
19734;DHT22;10018;51.230;7.860;2024-02-26T10:48:13;7.30;99.90
19734;DHT22;10018;51.230;7.860;2024-02-26T10:50:39;7.30;99.90
19734;DHT22;10018;51.230;7.860;2024-02-26T10:53:13;7.30;99.90
19734;DHT22;10018;51.230;7.860;2024-02-26T10:55:42;7.40;99.90
19734;DHT22;10018;51.230;7.860;2024-02-26T10:58:12;7.50;99.90
19734;DHT22;10018;51.230;7.860;2024-02-26T11:00:39;7.40;99.90
19734;DHT22;10018;51.230;7.860;2024-02-26T11:03:06;7.50;99.90
19734;DHT22;10018;51.230;7.860;2024-02-26T11:05:35;7.50;99.90
19734;DHT22;10018;51.230;7.860;2024-02-26T11:08:03;7.50;99.90
19734;DHT22;10018;51.230;7.860;2024-02-26T11:10:31;7.50;99.90
19734;DHT22;10018;51.230;7.860;2024-02-26T11:12:59;7.60;99.90
19734;DHT22;10018;51.230;7.860;2024-02-26T11:15:28;7.70;99.90
19734;DHT22;10018;51.230;7.860;2024-02-26T11:17:55;7.70;99.90
19734;DHT22;10018;51.230;7.860;2024-02-26T11:20:21;7.70;99.90
19734;DHT22;10018;51.230;7.860;2024-02-26T11:22:48;7.80;99.90
19734;DHT22;10018;51.230;7.860;2024-02-26T11:25:14;7.80;99.90
19734;DHT22;10018;51.230;7.860;2024-02-26T11:27:58;7.80;99.90
19734;DHT22;10018;51.230;7.860;2024-02-26T11:30:31;7.90;99.90
19734;DHT22;10018;51.230;7.860;2024-02-26T11:32:58;7.90;99.90
19734;DHT22;10018;51.230;7.860;2024-02-26T11:35:24;7.80;99.90
19734;DHT22;10018;51.230;7.860;2024-02-26T11:37:56;7.80;99.90
19734;DHT22;10018;51.230;7.860;2024-02-26T11:40:26;7.70;99.90
19734;DHT22;10018;51.230;7.860;2024-02-26T11:42:53;7.70;99.90
19734;DHT22;10018;51.230;7.860;2024-02-26T11:48:29;7.80;99.90
19734;DHT22;10018;51.230;7.860;2024-02-26T11:50:58;7.80;99.90
19734;DHT22;10018;51.230;7.860;2024-02-26T11:53:33;7.80;99.90
19734;DHT22;10018;51.230;7.860;2024-02-26T11:59:10;7.90;99.90
19734;DHT22;10018;51.230;7.860;2024-02-26T12:04:04;7.90;99.90
19734;DHT22;10018;51.230;7.860;2024-02-26T12:06:30;8.00;99.90
19734;DHT22;10018;51.230;7.860;2024-02-26T12:08:56;8.00;99.90
19734;DHT22;10018;51.230;7.860;2024-02-26T12:11:22;8.00;99.90
19734;DHT22;10018;51.230;7.860;2024-02-26T12:13:48;7.90;99.90
19734;DHT22;10018;51.230;7.860;2024-02-26T12:16:38;8.10;99.90
19734;DHT22;10018;51.230;7.860;2024-02-26T12:19:05;8.00;99.90
19734;DHT22;10018;51.230;7.860;2024-02-26T12:21:34;7.90;99.90
19734;DHT22;10018;51.230;7.860;2024-02-26T12:24:14;7.90;99.90
19734;DHT22;10018;51.230;7.860;2024-02-26T12:26:41;7.90;99.90
19734;DHT22;10018;51.230;7.860;2024-02-26T12:29:09;8.00;99.90
19734;DHT22;10018;51.230;7.860;2024-02-26T12:31:36;8.00;99.90
19734;DHT22;10018;51.230;7.860;2024-02-26T12:34:05;8.00;99.90
19734;DHT22;10018;51.230;7.860;2024-02-26T12:36:34;8.00;99.90
19734;DHT22;10018;51.230;7.860;2024-02-26T12:39:01;8.10;99.90
19734;DHT22;10018;51.230;7.860;2024-02-26T12:41:27;8.10;99.90
19734;DHT22;10018;51.230;7.860;2024-02-26T12:43:55;8.10;99.90
19734;DHT22;10018;51.230;7.860;2024-02-26T12:46:22;8.10;99.90
19734;DHT22;10018;51.230;7.860;2024-02-26T12:48:47;8.10;99.90
19734;DHT22;10018;51.230;7.860;2024-02-26T12:51:14;8.20;99.90
19734;DHT22;10018;51.230;7.860;2024-02-26T12:53:41;8.20;99.90
19734;DHT22;10018;51.230;7.860;2024-02-26T12:56:10;8.30;99.90
19734;DHT22;10018;51.230;7.860;2024-02-26T12:58:38;8.40;99.90
19734;DHT22;10018;51.230;7.860;2024-02-26T13:01:05;8.40;99.90
19734;DHT22;10018;51.230;7.860;2024-02-26T13:03:34;8.40;99.90
19734;DHT22;10018;51.230;7.860;2024-02-26T13:06:02;8.50;99.90
19734;DHT22;10018;51.230;7.860;2024-02-26T13:08:27;8.50;99.90
19734;DHT22;10018;51.230;7.860;2024-02-26T13:10:53;8.50;99.90
19734;DHT22;10018;51.230;7.860;2024-02-26T13:13:19;8.70;99.90
19734;DHT22;10018;51.230;7.860;2024-02-26T13:15:45;8.60;99.90
19734;DHT22;10018;51.230;7.860;2024-02-26T13:18:12;8.60;99.90
19734;DHT22;10018;51.230;7.860;2024-02-26T13:20:38;8.70;99.90
19734;DHT22;10018;51.230;7.860;2024-02-26T13:23:12;8.70;99.90
19734;DHT22;10018;51.230;7.860;2024-02-26T13:25:38;8.70;99.90
19734;DHT22;10018;51.230;7.860;2024-02-26T13:28:16;8.70;99.90
19734;DHT22;10018;51.230;7.860;2024-02-26T13:30:49;8.60;99.90
19734;DHT22;10018;51.230;7.860;2024-02-26T13:33:15;8.60;99.90
19734;DHT22;10018;51.230;7.860;2024-02-26T13:35:41;8.60;99.90
19734;DHT22;10018;51.230;7.860;2024-02-26T13:38:07;8.60;99.90
19734;DHT22;10018;51.230;7.860;2024-02-26T13:40:32;8.60;99.90
19734;DHT22;10018;51.230;7.860;2024-02-26T13:42:59;8.60;99.90
19734;DHT22;10018;51.230;7.860;2024-02-26T13:45:25;8.60;99.90
19734;DHT22;10018;51.230;7.860;2024-02-26T13:47:51;8.60;99.90
19734;DHT22;10018;51.230;7.860;2024-02-26T13:50:16;8.60;99.90
19734;DHT22;10018;51.230;7.860;2024-02-26T13:52:46;8.60;99.90
19734;DHT22;10018;51.230;7.860;2024-02-26T13:55:12;8.60;99.90
19734;DHT22;10018;51.230;7.860;2024-02-26T13:57:40;8.60;99.90
19734;DHT22;10018;51.230;7.860;2024-02-26T14:00:08;8.70;99.90
19734;DHT22;10018;51.230;7.860;2024-02-26T14:02:35;8.60;99.90
19734;DHT22;10018;51.230;7.860;2024-02-26T14:05:02;8.60;99.90
19734;DHT22;10018;51.230;7.860;2024-02-26T14:07:29;8.60;99.90
19734;DHT22;10018;51.230;7.860;2024-02-26T14:09:57;8.60;99.90
19734;DHT22;10018;51.230;7.860;2024-02-26T14:12:23;8.60;99.90
19734;DHT22;10018;51.230;7.860;2024-02-26T14:14:48;8.60;99.90
19734;DHT22;10018;51.230;7.860;2024-02-26T14:17:18;8.50;99.90
19734;DHT22;10018;51.230;7.860;2024-02-26T14:19:44;8.60;99.90
19734;DHT22;10018;51.230;7.860;2024-02-26T14:22:14;8.60;99.90
19734;DHT22;10018;51.230;7.860;2024-02-26T14:24:42;8.70;99.90
19734;DHT22;10018;51.230;7.860;2024-02-26T14:27:13;8.70;99.90
19734;DHT22;10018;51.230;7.860;2024-02-26T14:29:46;8.70;99.90
19734;DHT22;10018;51.230;7.860;2024-02-26T14:32:12;8.80;99.90
19734;DHT22;10018;51.230;7.860;2024-02-26T14:34:38;8.80;99.90
19734;DHT22;10018;51.230;7.860;2024-02-26T14:37:03;8.90;99.90
19734;DHT22;10018;51.230;7.860;2024-02-26T14:39:31;8.90;99.90
19734;DHT22;10018;51.230;7.860;2024-02-26T14:41:57;8.90;99.90
19734;DHT22;10018;51.230;7.860;2024-02-26T14:44:23;8.90;99.90
19734;DHT22;10018;51.230;7.860;2024-02-26T14:46:49;8.90;99.90
19734;DHT22;10018;51.230;7.860;2024-02-26T14:49:15;8.90;99.90
19734;DHT22;10018;51.230;7.860;2024-02-26T14:51:44;8.80;99.90
19734;DHT22;10018;51.230;7.860;2024-02-26T14:54:13;8.80;99.90
19734;DHT22;10018;51.230;7.860;2024-02-26T14:56:39;8.80;99.90
19734;DHT22;10018;51.230;7.860;2024-02-26T14:59:05;8.80;99.90
19734;DHT22;10018;51.230;7.860;2024-02-26T15:01:34;8.80;99.90
19734;DHT22;10018;51.230;7.860;2024-02-26T15:04:00;8.90;99.90
19734;DHT22;10018;51.230;7.860;2024-02-26T15:06:25;8.90;99.90
19734;DHT22;10018;51.230;7.860;2024-02-26T15:08:55;8.80;99.90
19734;DHT22;10018;51.230;7.860;2024-02-26T15:11:21;8.80;99.90
19734;DHT22;10018;51.230;7.860;2024-02-26T15:13:46;8.80;99.90
19734;DHT22;10018;51.230;7.860;2024-02-26T15:16:19;8.80;99.90
19734;DHT22;10018;51.230;7.860;2024-02-26T15:18:48;8.80;99.90
19734;DHT22;10018;51.230;7.860;2024-02-26T15:21:14;8.80;99.90
19734;DHT22;10018;51.230;7.860;2024-02-26T15:23:43;8.80;99.90
19734;DHT22;10018;51.230;7.860;2024-02-26T15:26:17;8.70;99.90
19734;DHT22;10018;51.230;7.860;2024-02-26T15:28:44;8.80;99.90
19734;DHT22;10018;51.230;7.860;2024-02-26T15:31:10;8.80;99.90
19734;DHT22;10018;51.230;7.860;2024-02-26T15:33:36;8.70;99.90
19734;DHT22;10018;51.230;7.860;2024-02-26T15:36:01;8.60;99.90
19734;DHT22;10018;51.230;7.860;2024-02-26T15:38:27;8.70;99.90
19734;DHT22;10018;51.230;7.860;2024-02-26T15:40:53;8.70;99.90
19734;DHT22;10018;51.230;7.860;2024-02-26T15:43:18;8.70;99.90
19734;DHT22;10018;51.230;7.860;2024-02-26T15:45:47;8.70;99.90
19734;DHT22;10018;51.230;7.860;2024-02-26T15:48:15;8.70;99.90
19734;DHT22;10018;51.230;7.860;2024-02-26T15:50:41;8.60;99.90